createdAt,value
2018-03-24T00:01:56.022Z,99.90
2018-03-24T00:04:28.923Z,99.90
2018-03-24T00:07:11.867Z,99.90
2018-03-24T00:09:39.931Z,99.90
2018-03-24T00:12:08.887Z,99.90
2018-03-24T00:14:38.960Z,99.90
2018-03-24T00:17:08.039Z,99.90
2018-03-24T00:19:36.259Z,99.90
2018-03-24T00:22:10.967Z,99.90
2018-03-24T00:24:39.015Z,99.90
2018-03-24T00:27:07.102Z,99.90
2018-03-24T00:29:40.848Z,99.90
2018-03-24T00:32:10.885Z,99.90
2018-03-24T00:34:40.675Z,99.90
2018-03-24T00:37:11.462Z,99.90
2018-03-24T00:39:39.703Z,99.90
2018-03-24T00:42:07.739Z,99.90
2018-03-24T00:44:46.115Z,99.90
2018-03-24T00:47:15.059Z,99.90
2018-03-24T00:49:45.430Z,99.90
2018-03-24T00:52:14.510Z,99.90
2018-03-24T00:54:43.539Z,99.90
2018-03-24T00:57:12.771Z,99.90
2018-03-24T00:59:42.646Z,99.90
2018-03-24T01:02:13.910Z,99.90
2018-03-24T01:04:47.851Z,99.90
2018-03-24T01:07:17.646Z,99.90
2018-03-24T01:09:51.367Z,99.90
2018-03-24T01:12:20.570Z,99.90
2018-03-24T01:14:50.575Z,99.90
2018-03-24T01:17:19.610Z,99.90
2018-03-24T01:19:52.348Z,99.90
2018-03-24T01:22:31.155Z,99.90
2018-03-24T01:25:02.938Z,99.90
2018-03-24T01:27:32.990Z,99.90
2018-03-24T01:30:11.659Z,99.90
2018-03-24T01:32:45.322Z,99.90
2018-03-24T01:35:26.878Z,99.90
2018-03-24T01:38:04.003Z,99.90
2018-03-24T01:40:33.024Z,99.90
2018-03-24T01:43:01.594Z,99.90
2018-03-24T01:45:30.742Z,99.90
2018-03-24T01:48:02.942Z,99.90
2018-03-24T01:50:30.982Z,99.90
2018-03-24T01:52:59.254Z,99.90
2018-03-24T01:55:34.194Z,99.90
2018-03-24T01:58:05.834Z,99.90
2018-03-24T02:00:40.494Z,99.90
2018-03-24T02:03:13.190Z,99.90
2018-03-24T02:05:46.849Z,99.90
2018-03-24T02:08:18.638Z,99.90
2018-03-24T02:10:51.690Z,99.90
2018-03-24T02:13:21.807Z,99.90
2018-03-24T02:15:56.702Z,99.90
2018-03-24T02:18:33.217Z,99.90
2018-03-24T02:21:03.466Z,99.90
2018-03-24T02:23:31.538Z,99.90
2018-03-24T02:26:06.151Z,99.90
2018-03-24T02:28:34.922Z,99.90
2018-03-24T02:31:03.439Z,99.90
2018-03-24T02:33:38.255Z,99.90
2018-03-24T02:36:07.873Z,99.90
2018-03-24T02:38:38.582Z,99.90
2018-03-24T02:41:08.638Z,99.90
2018-03-24T02:43:38.979Z,99.90
2018-03-24T02:46:08.970Z,99.90
2018-03-24T02:48:49.762Z,99.90
2018-03-24T02:51:25.498Z,99.90
2018-03-24T02:53:54.489Z,99.90
2018-03-24T02:59:28.605Z,99.90
2018-03-24T03:01:58.630Z,99.90
2018-03-24T03:04:32.170Z,99.90
2018-03-24T03:07:00.228Z,99.90
2018-03-24T03:09:28.270Z,99.90
2018-03-24T03:12:13.825Z,99.90
2018-03-24T03:14:44.089Z,99.90
2018-03-24T03:17:12.161Z,99.90
2018-03-24T03:19:42.906Z,99.90
2018-03-24T03:22:17.065Z,99.90
2018-03-24T03:24:56.877Z,99.90
2018-03-24T03:27:37.869Z,99.90
2018-03-24T03:30:22.702Z,99.90
2018-03-24T03:32:50.998Z,99.90
2018-03-24T03:35:19.777Z,99.90
2018-03-24T03:37:47.830Z,99.90
2018-03-24T03:40:18.037Z,99.90
2018-03-24T03:42:48.033Z,99.90
2018-03-24T03:45:20.621Z,99.90
2018-03-24T03:47:56.433Z,99.90
2018-03-24T03:50:29.129Z,99.90
2018-03-24T03:53:02.229Z,99.90
2018-03-24T03:55:31.142Z,99.90
2018-03-24T03:58:06.602Z,99.90
2018-03-24T04:00:37.453Z,99.90
2018-03-24T04:03:05.535Z,99.90
2018-03-24T04:05:39.245Z,99.90
2018-03-24T04:08:09.318Z,99.90
2018-03-24T04:10:38.494Z,99.90
2018-03-24T04:13:09.265Z,99.90
2018-03-24T04:15:49.453Z,99.90
2018-03-24T04:18:21.807Z,99.90
2018-03-24T04:20:55.933Z,99.90
2018-03-24T04:23:24.973Z,99.90
2018-03-24T04:25:55.517Z,99.90
2018-03-24T04:28:28.877Z,99.90
2018-03-24T04:30:57.885Z,99.90
2018-03-24T04:33:39.334Z,99.90
2018-03-24T04:36:11.617Z,99.90
2018-03-24T04:38:42.269Z,99.90
2018-03-24T04:41:11.057Z,99.90
2018-03-24T04:43:41.285Z,99.90
2018-03-24T04:46:09.345Z,99.90
2018-03-24T04:48:41.853Z,99.90
2018-03-24T04:51:17.729Z,99.90
2018-03-24T04:53:47.673Z,99.90
2018-03-24T04:56:18.745Z,99.90
2018-03-24T04:58:46.801Z,99.90
2018-03-24T05:01:20.284Z,99.90
2018-03-24T05:03:51.149Z,99.90
2018-03-24T05:06:19.717Z,99.90
2018-03-24T05:09:06.324Z,99.90
2018-03-24T05:11:39.243Z,99.90
2018-03-24T05:14:09.189Z,99.90
2018-03-24T05:16:37.217Z,99.90
2018-03-24T05:19:05.245Z,99.90
2018-03-24T05:21:43.497Z,99.90
2018-03-24T05:24:17.272Z,99.90
2018-03-24T05:26:58.770Z,99.90
2018-03-24T05:29:34.756Z,99.90
2018-03-24T05:32:03.781Z,99.90
2018-03-24T05:34:31.808Z,99.90
2018-03-24T05:37:08.189Z,99.90
2018-03-24T05:39:47.012Z,99.90
2018-03-24T05:42:15.045Z,99.90
2018-03-24T05:44:45.011Z,99.90
2018-03-24T05:47:15.041Z,99.90
2018-03-24T05:49:48.841Z,99.90
2018-03-24T05:52:18.863Z,99.90
2018-03-24T05:54:47.836Z,99.90
2018-03-24T05:57:16.832Z,99.90
2018-03-24T05:59:48.892Z,99.90
2018-03-24T06:02:23.509Z,99.90
2018-03-24T06:04:51.524Z,99.90
2018-03-24T06:07:31.939Z,99.90
2018-03-24T06:10:05.064Z,99.90
2018-03-24T06:12:35.080Z,99.90
2018-03-24T06:15:08.872Z,99.90
2018-03-24T06:17:43.144Z,99.90
2018-03-24T06:20:11.173Z,99.90
2018-03-24T06:22:39.980Z,99.90
2018-03-24T06:25:08.017Z,99.90
2018-03-24T06:27:36.044Z,99.90
2018-03-24T06:30:12.629Z,99.90
2018-03-24T06:32:41.640Z,99.90
2018-03-24T06:35:10.649Z,99.90
2018-03-24T06:37:38.676Z,99.90
2018-03-24T06:40:08.460Z,99.90
2018-03-24T06:42:37.410Z,99.90
2018-03-24T06:45:08.749Z,99.90
2018-03-24T06:47:38.783Z,99.90
2018-03-24T06:50:10.044Z,99.90
2018-03-24T06:52:39.028Z,99.90
2018-03-24T06:55:09.236Z,99.90
2018-03-24T06:57:42.472Z,99.90
2018-03-24T07:00:11.432Z,99.90
2018-03-24T07:02:58.488Z,99.90
2018-03-24T07:05:32.244Z,99.90
2018-03-24T07:08:01.255Z,99.90
2018-03-24T07:10:30.040Z,99.90
2018-03-24T07:13:04.775Z,99.90
2018-03-24T07:15:41.592Z,99.90
2018-03-24T07:18:11.543Z,99.90
2018-03-24T07:20:51.584Z,99.90
2018-03-24T07:23:23.664Z,99.90
2018-03-24T07:25:56.420Z,99.90
2018-03-24T07:28:24.471Z,99.90
2018-03-24T07:30:53.504Z,99.30
2018-03-24T07:33:21.527Z,99.00
2018-03-24T07:35:54.560Z,99.80
2018-03-24T07:38:23.524Z,99.80
2018-03-24T07:40:58.072Z,99.90
2018-03-24T07:43:34.107Z,99.90
2018-03-24T07:46:04.028Z,99.90
2018-03-24T07:48:44.452Z,99.90
2018-03-24T07:51:19.076Z,99.90
2018-03-24T07:54:03.500Z,99.90
2018-03-24T07:56:40.407Z,98.80
2018-03-24T07:59:20.972Z,98.80
2018-03-24T08:02:05.593Z,99.20
2018-03-24T08:04:41.687Z,97.80
2018-03-24T08:07:09.704Z,97.70
2018-03-24T08:09:42.492Z,97.00
2018-03-24T08:12:16.384Z,94.70
2018-03-24T08:14:50.092Z,91.60
2018-03-24T08:17:18.132Z,88.60
2018-03-24T08:19:49.704Z,88.40
2018-03-24T08:22:17.739Z,85.10
2018-03-24T08:24:53.859Z,83.80
2018-03-24T08:27:23.252Z,81.60
2018-03-24T08:29:52.384Z,81.50
2018-03-24T08:32:21.336Z,79.30
2018-03-24T08:34:51.347Z,80.60
2018-03-24T08:37:20.267Z,81.60
2018-03-24T08:39:50.964Z,80.30
2018-03-24T08:42:19.960Z,80.10
2018-03-24T08:44:53.048Z,80.90
2018-03-24T08:47:22.035Z,80.30
2018-03-24T08:49:51.058Z,76.50
2018-03-24T08:52:24.856Z,74.10
2018-03-24T08:54:52.899Z,74.10
2018-03-24T08:57:30.771Z,72.70
2018-03-24T09:00:03.821Z,72.80
2018-03-24T09:02:36.540Z,70.80
2018-03-24T09:05:11.899Z,70.80
2018-03-24T09:07:47.848Z,67.40
2018-03-24T09:10:21.916Z,65.60
2018-03-24T09:12:52.612Z,62.50
2018-03-24T09:15:30.412Z,62.10
2018-03-24T09:18:00.331Z,66.60
2018-03-24T09:20:38.248Z,63.70
2018-03-24T09:23:08.141Z,67.30
2018-03-24T09:25:41.340Z,67.30
2018-03-24T09:28:26.539Z,64.80
2018-03-24T09:31:04.820Z,58.70
2018-03-24T09:33:39.335Z,59.10
2018-03-24T09:36:17.251Z,58.90
2018-03-24T09:38:48.887Z,60.60
2018-03-24T09:41:28.528Z,51.40
2018-03-24T09:43:56.604Z,55.60
2018-03-24T09:46:39.943Z,61.40
2018-03-24T09:49:22.679Z,58.10
2018-03-24T09:51:51.492Z,66.80
2018-03-24T09:54:21.471Z,66.80
2018-03-24T09:56:52.187Z,67.80
2018-03-24T09:59:21.208Z,67.60
2018-03-24T10:01:55.875Z,64.90
2018-03-24T10:04:24.918Z,64.50
2018-03-24T10:06:54.923Z,68.00
2018-03-24T10:09:27.484Z,70.30
2018-03-24T10:12:02.999Z,71.50
2018-03-24T10:14:38.859Z,70.70
2018-03-24T10:17:11.027Z,67.20
2018-03-24T10:19:39.079Z,56.70
2018-03-24T10:25:26.035Z,58.50
2018-03-24T10:28:02.683Z,61.20
2018-03-24T10:30:36.363Z,63.40
2018-03-24T10:36:03.295Z,67.50
2018-03-24T10:38:31.319Z,67.40
2018-03-24T10:41:05.983Z,68.40
2018-03-24T10:43:38.967Z,68.30
2018-03-24T10:49:02.875Z,59.10
2018-03-24T10:51:42.279Z,59.20
2018-03-24T10:54:30.195Z,60.90
2018-03-24T10:57:02.016Z,64.60
2018-03-24T10:59:32.719Z,63.50
2018-03-24T11:02:00.758Z,62.80
2018-03-24T11:04:29.691Z,63.60
2018-03-24T11:06:57.714Z,65.50
2018-03-24T11:09:25.746Z,58.90
2018-03-24T11:11:58.053Z,50.90
2018-03-24T11:14:27.103Z,50.30
2018-03-24T11:17:01.720Z,46.80
2018-03-24T11:19:29.751Z,52.30
2018-03-24T11:22:15.195Z,53.50
2018-03-24T11:24:45.895Z,48.20
2018-03-24T11:27:24.379Z,48.20
2018-03-24T11:29:52.407Z,45.30
2018-03-24T11:32:25.567Z,46.80
2018-03-24T11:34:54.574Z,46.80
2018-03-24T11:37:26.622Z,49.00
2018-03-24T11:40:03.195Z,51.40
2018-03-24T11:42:43.019Z,53.60
2018-03-24T11:45:27.739Z,53.90
2018-03-24T11:47:57.531Z,51.20
2018-03-24T11:50:28.769Z,51.10
2018-03-24T11:53:00.379Z,54.40
2018-03-24T11:55:29.406Z,53.90
2018-03-24T11:57:57.434Z,54.80
2018-03-24T12:00:30.062Z,52.90
2018-03-24T12:02:58.091Z,52.80
2018-03-24T12:05:27.130Z,51.50
2018-03-24T12:07:55.151Z,52.80
2018-03-24T12:10:25.184Z,50.00
2018-03-24T12:12:53.226Z,51.80
2018-03-24T12:15:25.310Z,51.90
2018-03-24T12:17:55.274Z,52.50
2018-03-24T12:20:30.210Z,54.70
2018-03-24T12:23:00.243Z,54.60
2018-03-24T12:25:30.946Z,48.90
2018-03-24T12:28:02.518Z,48.80
2018-03-24T12:30:31.330Z,38.80
2018-03-24T12:33:00.280Z,38.80
2018-03-24T12:35:28.317Z,41.10
2018-03-24T12:37:58.234Z,39.80
2018-03-24T12:40:26.326Z,34.70
2018-03-24T12:42:54.386Z,37.70
2018-03-24T12:45:23.418Z,37.90
2018-03-24T12:47:52.266Z,34.80
2018-03-24T12:50:24.910Z,31.40
2018-03-24T12:52:58.142Z,31.30
2018-03-24T12:55:26.190Z,31.20
2018-03-24T12:58:02.361Z,29.60
2018-03-24T13:00:40.186Z,30.90
2018-03-24T13:03:10.213Z,30.90
2018-03-24T13:05:43.610Z,36.10
2018-03-24T13:08:13.482Z,40.20
2018-03-24T13:10:41.502Z,39.70
2018-03-24T13:13:12.787Z,40.80
2018-03-24T13:15:40.834Z,40.70
2018-03-24T13:18:10.838Z,40.50
2018-03-24T13:20:46.433Z,42.00
2018-03-24T13:23:14.446Z,41.90
2018-03-24T13:25:43.337Z,44.70
2018-03-24T13:28:13.198Z,42.90
2018-03-24T13:30:46.565Z,43.50
2018-03-24T13:33:21.605Z,43.30
2018-03-24T13:35:49.617Z,45.70
2018-03-24T13:38:17.646Z,44.70
2018-03-24T13:40:53.361Z,44.70
2018-03-24T13:43:25.430Z,43.00
2018-03-24T13:46:03.725Z,43.00
2018-03-24T13:48:41.481Z,44.30
2018-03-24T13:51:11.497Z,46.20
2018-03-24T13:53:40.557Z,47.40
2018-03-24T13:56:09.377Z,47.70
2018-03-24T13:58:37.441Z,47.80
2018-03-24T14:01:09.189Z,43.70
2018-03-24T14:03:39.547Z,43.90
2018-03-24T14:06:08.549Z,38.60
2018-03-24T14:08:37.617Z,37.60
2018-03-24T14:11:06.657Z,35.30
2018-03-24T14:13:34.681Z,32.70
2018-03-24T14:16:03.730Z,32.40
2018-03-24T14:18:32.513Z,34.20
2018-03-24T14:21:08.825Z,38.10
2018-03-24T14:23:36.840Z,37.60
2018-03-24T14:26:06.849Z,38.40
2018-03-24T14:28:34.877Z,38.70
2018-03-24T14:31:07.085Z,35.30
2018-03-24T14:33:42.389Z,32.60
2018-03-24T14:36:15.505Z,32.80
2018-03-24T14:38:43.565Z,31.50
2018-03-24T14:41:11.949Z,32.40
2018-03-24T14:43:46.465Z,31.20
2018-03-24T14:46:14.497Z,33.70
2018-03-24T14:48:43.452Z,36.60
2018-03-24T14:51:11.473Z,34.70
2018-03-24T14:53:39.501Z,33.90
2018-03-24T14:56:07.522Z,35.60
2018-03-24T14:58:38.797Z,34.00
2018-03-24T15:01:14.250Z,32.50
2018-03-24T15:03:43.241Z,32.60
2018-03-24T15:06:11.287Z,31.90
2018-03-24T15:08:43.809Z,31.50
2018-03-24T15:11:11.825Z,30.70
2018-03-24T15:13:41.761Z,33.10
2018-03-24T15:16:09.853Z,32.40
2018-03-24T15:18:38.857Z,33.40
2018-03-24T15:21:10.494Z,34.90
2018-03-24T15:23:42.401Z,36.40
2018-03-24T15:26:17.957Z,38.10
2018-03-24T15:28:58.529Z,38.60
2018-03-24T15:31:38.209Z,38.30
2018-03-24T15:34:23.073Z,38.60
2018-03-24T15:36:54.197Z,41.00
2018-03-24T15:39:27.196Z,45.50
2018-03-24T15:42:01.609Z,46.40
2018-03-24T15:44:29.640Z,49.20
2018-03-24T15:46:57.677Z,47.20
2018-03-24T15:49:31.359Z,44.00
2018-03-24T15:52:00.358Z,43.40
2018-03-24T15:54:30.362Z,41.30
2018-03-24T15:56:58.397Z,44.10
2018-03-24T15:59:30.598Z,44.20
2018-03-24T16:02:02.422Z,46.90
2018-03-24T16:04:36.152Z,47.90
2018-03-24T16:07:04.172Z,50.30
2018-03-24T16:09:32.205Z,52.30
2018-03-24T16:12:01.201Z,52.90
2018-03-24T16:14:29.204Z,55.10
2018-03-24T16:16:59.165Z,53.60
2018-03-24T16:19:31.136Z,54.90
2018-03-24T16:21:59.158Z,56.90
2018-03-24T16:24:27.180Z,55.00
2018-03-24T16:26:57.186Z,55.50
2018-03-24T16:29:27.205Z,55.40
2018-03-24T16:32:00.933Z,56.10
2018-03-24T16:34:29.725Z,56.40
2018-03-24T16:37:02.090Z,58.50
2018-03-24T16:39:35.924Z,58.50
2018-03-24T16:42:07.838Z,58.10
2018-03-24T16:44:35.852Z,57.40
2018-03-24T16:47:05.813Z,56.80
2018-03-24T16:49:34.813Z,57.40
2018-03-24T16:52:02.833Z,57.90
2018-03-24T16:54:43.805Z,58.50
2018-03-24T16:57:11.827Z,59.20
2018-03-24T16:59:46.508Z,60.60
2018-03-24T17:02:16.449Z,62.30
2018-03-24T17:04:45.456Z,62.80
2018-03-24T17:07:31.693Z,63.40
2018-03-24T17:10:01.668Z,63.40
2018-03-24T17:12:31.688Z,65.00
2018-03-24T17:15:11.387Z,65.00
2018-03-24T17:17:47.257Z,65.90
2018-03-24T17:20:16.277Z,66.80
2018-03-24T17:22:44.312Z,67.10
2018-03-24T17:25:12.344Z,67.80
2018-03-24T17:27:55.907Z,68.90
2018-03-24T17:30:23.917Z,68.90
2018-03-24T17:32:52.912Z,69.30
2018-03-24T17:35:24.052Z,70.30
2018-03-24T17:37:52.081Z,70.40
2018-03-24T17:40:28.421Z,70.90
2018-03-24T17:43:03.320Z,69.00
2018-03-24T17:45:31.383Z,68.90
2018-03-24T17:48:01.409Z,99.90
2018-03-24T17:50:29.581Z,99.90
2018-03-24T17:53:00.956Z,1.00
2018-03-24T17:55:35.468Z,1.00
2018-03-24T17:58:12.192Z,1.00
2018-03-24T18:00:40.224Z,1.00
2018-03-24T18:03:09.180Z,99.90
2018-03-24T18:05:38.092Z,99.90
2018-03-24T18:08:10.168Z,99.90
2018-03-24T18:10:41.989Z,1.00
2018-03-24T18:13:11.917Z,1.00
2018-03-24T18:15:43.476Z,1.00
2018-03-24T18:18:11.484Z,1.00
2018-03-24T18:20:46.124Z,99.90
2018-03-24T18:23:16.066Z,99.90
2018-03-24T18:25:45.057Z,97.50
2018-03-24T18:28:15.097Z,99.90
2018-03-24T18:30:43.096Z,99.90
2018-03-24T18:33:16.756Z,99.90
2018-03-24T18:35:46.764Z,99.90
2018-03-24T18:38:15.756Z,99.90
2018-03-24T18:40:53.156Z,99.90
2018-03-24T18:43:33.096Z,99.90
2018-03-24T18:46:01.128Z,99.90
2018-03-24T18:48:31.088Z,99.90
2018-03-24T18:51:00.840Z,99.90
2018-03-24T18:53:35.284Z,99.90
2018-03-24T18:56:05.231Z,99.90
2018-03-24T18:58:33.264Z,99.90
2018-03-24T19:01:04.968Z,99.90
2018-03-24T19:03:34.976Z,1.00
2018-03-24T19:06:03.012Z,1.00
2018-03-24T19:08:31.040Z,1.00
2018-03-24T19:11:01.796Z,1.00
2018-03-24T19:13:30.741Z,1.00
2018-03-24T19:15:58.763Z,1.00
2018-03-24T19:18:38.932Z,1.00
2018-03-24T19:21:08.787Z,1.00
2018-03-24T19:26:10.179Z,1.00
2018-03-24T19:28:40.223Z,70.30
2018-03-24T19:31:13.955Z,99.90
2018-03-24T19:36:35.883Z,99.90
2018-03-24T19:39:05.824Z,99.90
2018-03-24T19:41:39.004Z,99.90
2018-03-24T19:44:10.780Z,99.90
2018-03-24T19:46:43.847Z,99.90
2018-03-24T19:49:17.582Z,99.90
2018-03-24T19:51:58.090Z,99.90
2018-03-24T19:54:26.119Z,99.90
2018-03-24T19:56:54.159Z,99.90
2018-03-24T19:59:30.008Z,99.90
2018-03-24T20:02:01.172Z,99.90
2018-03-24T20:04:42.280Z,99.90
2018-03-24T20:07:20.207Z,99.90
2018-03-24T20:09:54.267Z,99.90
2018-03-24T20:12:27.331Z,99.90
2018-03-24T20:15:01.258Z,99.90
2018-03-24T20:17:31.118Z,99.90
2018-03-24T20:20:00.189Z,99.90
2018-03-24T20:22:33.335Z,1.00
2018-03-24T20:25:04.976Z,1.00
2018-03-24T20:27:35.019Z,1.00
2018-03-24T20:30:05.027Z,1.00
2018-03-24T20:32:34.012Z,1.00
2018-03-24T20:35:19.336Z,1.00
2018-03-24T20:37:49.331Z,1.00
2018-03-24T20:40:21.171Z,1.00
2018-03-24T20:42:49.228Z,1.00
2018-03-24T20:45:20.603Z,1.00
2018-03-24T20:47:53.519Z,1.00
2018-03-24T20:50:23.499Z,1.00
2018-03-24T20:52:51.527Z,1.00
2018-03-24T20:55:19.583Z,1.00
2018-03-24T20:57:47.639Z,1.00
2018-03-24T21:00:21.040Z,1.00
2018-03-24T21:02:53.791Z,1.00
2018-03-24T21:05:29.319Z,1.00
2018-03-24T21:08:00.659Z,1.00
2018-03-24T21:10:35.263Z,1.00
2018-03-24T21:13:08.171Z,1.00
2018-03-24T21:15:37.851Z,1.00
2018-03-24T21:18:12.447Z,71.40
2018-03-24T21:20:42.642Z,1.00
2018-03-24T21:23:10.679Z,1.00
2018-03-24T21:25:39.640Z,1.00
2018-03-24T21:28:07.827Z,64.40
2018-03-24T21:30:37.623Z,99.90
2018-03-24T21:33:07.066Z,99.90
2018-03-24T21:35:41.879Z,99.90
2018-03-24T21:38:09.951Z,79.80
2018-03-24T21:40:42.095Z,99.90
2018-03-24T21:43:11.423Z,99.90
2018-03-24T21:45:43.891Z,99.90
2018-03-24T21:48:13.467Z,99.90
2018-03-24T21:50:43.577Z,99.90
2018-03-24T21:53:12.566Z,99.90
2018-03-24T21:55:51.643Z,89.40
2018-03-24T21:58:22.056Z,1.00
2018-03-24T22:00:57.711Z,99.90
2018-03-24T22:03:28.099Z,98.10
2018-03-24T22:05:59.939Z,99.90
2018-03-24T22:08:29.723Z,95.90
2018-03-24T22:10:57.784Z,99.90
2018-03-24T22:13:26.798Z,99.90
2018-03-24T22:15:57.154Z,99.90
2018-03-24T22:18:39.519Z,99.90
2018-03-24T22:21:09.588Z,99.90
2018-03-24T22:23:39.543Z,96.80
2018-03-24T22:26:07.782Z,99.90
2018-03-24T22:28:37.782Z,99.90
2018-03-24T22:31:05.878Z,99.90
2018-03-24T22:33:45.458Z,99.90
2018-03-24T22:36:13.506Z,99.90
2018-03-24T22:38:42.519Z,99.90
2018-03-24T22:41:12.558Z,99.90
2018-03-24T22:43:45.858Z,1.00
2018-03-24T22:46:16.582Z,1.00
2018-03-24T22:48:45.430Z,1.00
2018-03-24T22:51:13.487Z,1.00
2018-03-24T22:53:41.530Z,1.00
2018-03-24T22:56:11.574Z,26.00
2018-03-24T22:58:42.634Z,99.90
2018-03-24T23:01:10.674Z,99.90
2018-03-24T23:03:38.762Z,1.00
2018-03-24T23:06:08.138Z,1.00
2018-03-24T23:08:38.317Z,1.00
2018-03-24T23:11:10.018Z,1.00
2018-03-24T23:13:38.042Z,93.80
2018-03-24T23:16:08.094Z,94.60
2018-03-24T23:18:37.022Z,95.20
2018-03-24T23:21:09.977Z,95.80
2018-03-24T23:23:38.030Z,95.80
2018-03-24T23:26:07.014Z,96.50
2018-03-24T23:28:37.884Z,96.10
2018-03-24T23:31:05.950Z,96.10
2018-03-24T23:33:38.005Z,96.00
2018-03-24T23:36:12.413Z,95.50
2018-03-24T23:38:44.496Z,1.00
2018-03-24T23:41:20.222Z,1.00
2018-03-24T23:44:00.915Z,1.00
2018-03-24T23:46:29.330Z,1.00
2018-03-24T23:49:00.406Z,1.00
2018-03-24T23:51:29.661Z,1.00
2018-03-24T23:53:59.018Z,1.00
2018-03-24T23:56:44.814Z,99.90
2018-03-24T23:59:13.946Z,1.00
